Time;durP1;ratioP1;P1;durP2;ratioP2;P2;SDS_P1;SDS_P2;PMS_P1;PMS_P2;Temp;Humidity;BMP_temperature;BMP_pressure;BME280_temperature;BME280_humidity;BME280_pressure;Samples;Min_cycle;Max_cycle;Signal;HPM_P1;HPM_P2
2024/04/06 09:50:17;;;;;;;2.20;1.20;;;;;;;20.92;50.87;96892.22;107625;1300;548652;-35
2024/04/06 09:53:41;;;;;;;2.90;1.10;;;;;;;21.12;50.59;96920.54;108483;1283;543978;-34
2024/04/06 09:56:12;;;;;;;2.20;1.10;;;;;;;21.17;50.52;96920.83;110104;1272;170425;-36
2024/04/06 09:58:48;;;;;;;1.30;0.90;;;;;;;21.23;50.42;96922.15;110336;1272;23131;-37
2024/04/06 10:01:19;;;;;;;1.80;1.00;;;;;;;21.28;50.39;96929.23;110476;1272;21969;-36
2024/04/06 10:03:49;;;;;;;3.60;1.20;;;;;;;21.31;50.35;96931.30;110423;1272;21968;-37
2024/04/06 10:06:28;;;;;;;2.90;1.20;;;;;;;21.34;50.26;96937.30;109955;1270;665291;-50
2024/04/06 10:08:59;;;;;;;;;;;;;;;21.37;50.29;96932.75;110827;1270;22612;-46
2024/04/06 10:11:28;;;;;;;2.80;1.10;;;;;;;21.38;50.29;96930.25;110837;1270;24327;-48
2024/04/06 10:16:39;;;;;;;2.70;1.30;;;;;;;21.44;50.22;96927.98;106062;1283;549610;-63
2024/04/06 10:19:08;;;;;;;1.40;1.00;;;;;;;21.44;50.31;96924.77;108521;1279;23116;-63
2024/04/06 10:21:45;;;;;;;1.70;1.00;;;;;;;21.45;50.34;96926.73;108437;1276;22042;-64
2024/04/06 10:24:14;;;;;;;1.90;1.00;;;;;;;21.47;50.23;96927.42;108517;1278;22056;-65
2024/04/06 10:26:52;;;;;;;1.70;1.20;;;;;;;21.50;50.26;96921.03;108463;1279;22765;-64
2024/04/06 10:29:20;;;;;;;2.40;1.20;;;;;;;21.51;50.19;96915.52;107873;1276;757763;-62
2024/04/06 10:31:49;;;;;;;1.70;0.90;;;;;;;21.53;50.33;96917.75;108742;1273;21977;-64
2024/04/06 10:34:17;;;;;;;1.60;1.10;;;;;;;21.54;50.28;96916.05;108781;1273;23592;-63
2024/04/06 10:36:47;;;;;;;1.60;1.10;;;;;;;21.54;50.30;96914.03;108727;1276;21973;-64
2024/04/06 10:39:16;;;;;;;1.50;1.10;;;;;;;21.56;50.30;96913.19;108822;1273;23626;-64
2024/04/06 10:41:44;;;;;;;4.80;4.00;;;;;;;21.55;51.21;96906.67;108943;1274;21925;-66
2024/04/06 10:44:12;;;;;;;10.30;7.70;;;;;;;20.98;57.68;96902.41;108673;1276;23073;-66
2024/04/06 10:46:40;;;;;;;7.30;5.80;;;;;;;19.78;63.06;96902.33;109070;1276;22280;-66
2024/04/06 10:49:13;;;;;;;9.60;7.90;;;;;;;18.85;65.98;96901.92;108911;1276;21986;-65
2024/04/06 10:51:41;;;;;;;8.80;6.70;;;;;;;18.21;68.17;96899.25;109051;1273;21875;-64
2024/04/06 10:54:10;;;;;;;7.60;5.70;;;;;;;17.81;69.40;96896.70;108887;1276;22103;-65
2024/04/06 10:56:38;;;;;;;5.70;5.10;;;;;;;17.35;70.93;96898.14;109016;1276;21986;-65
2024/04/06 10:59:06;;;;;;;8.60;7.10;;;;;;;16.73;74.62;96893.16;108963;1276;23033;-64
2024/04/06 11:01:35;;;;;;;8.00;6.80;;;;;;;16.37;73.65;96891.79;108958;1273;22631;-64
2024/04/06 11:04:03;;;;;;;8.70;7.10;;;;;;;16.20;73.12;96890.45;108933;1276;23708;-65
2024/04/06 11:06:31;;;;;;;8.20;7.40;;;;;;;16.12;74.72;96887.55;108915;1273;23025;-65
2024/04/06 11:09:06;;;;;;;8.80;7.20;;;;;;;16.10;74.58;96882.73;108941;1276;21998;-64
2024/04/06 11:11:34;;;;;;;9.40;7.30;;;;;;;16.11;75.86;96882.44;109814;1268;22067;-64
2024/04/06 11:14:02;;;;;;;7.90;6.80;;;;;;;16.13;77.79;96875.02;109753;1269;23116;-64
2024/04/06 11:16:31;;;;;;;9.00;7.10;;;;;;;16.13;84.45;96875.32;109815;1264;23601;-65
2024/04/06 11:19:01;;;;;;;10.30;8.50;;;;;;;16.10;85.25;96875.61;109982;1266;22020;-63
2024/04/06 11:21:28;;;;;;;9.60;8.20;;;;;;;16.10;83.79;96866.33;109818;1268;22013;-64
2024/04/06 11:23:57;;;;;;;27.30;17.50;;;;;;;16.16;82.75;96857.96;110059;1267;23608;-64
2024/04/06 11:26:25;;;;;;;29.10;16.10;;;;;;;16.26;85.20;96855.36;109870;1268;23638;-64
2024/04/06 11:28:53;;;;;;;16.80;11.40;;;;;;;16.36;83.35;96850.81;109909;1265;21979;-63
2024/04/06 11:31:21;;;;;;;11.90;9.40;;;;;;;16.46;87.63;96852.45;109840;1268;22039;-65
2024/04/06 11:33:49;;;;;;;9.30;7.80;;;;;;;16.53;83.51;96843.16;109953;1265;21966;-64
2024/04/06 11:36:17;;;;;;;9.40;7.80;;;;;;;16.65;79.51;96834.66;109801;1264;23618;-63
2024/04/06 11:38:46;;;;;;;9.30;7.50;;;;;;;16.82;78.89;96830.52;109991;1261;22011;-64
2024/04/06 11:41:14;;;;;;;8.70;7.30;;;;;;;16.95;80.95;96825.14;110031;1267;23699;-64
2024/04/06 11:43:41;;;;;;;7.10;6.20;;;;;;;17.12;83.59;96816.67;110122;1267;23515;-65
2024/04/06 11:46:09;;;;;;;10.00;6.90;;;;;;;17.30;82.64;96809.55;109991;1266;23714;-66
2024/04/06 11:48:37;;;;;;;10.30;8.00;;;;;;;17.40;84.21;96797.21;110156;1264;21977;-66
2024/04/06 11:51:05;;;;;;;8.80;7.00;;;;;;;17.41;82.79;96792.35;110000;1264;22038;-64
2024/04/06 11:53:35;;;;;;;9.20;8.20;;;;;;;17.43;84.62;96789.52;110137;1267;22053;-64
2024/04/06 11:56:03;;;;;;;11.60;8.10;;;;;;;17.45;86.70;96788.23;110029;1267;22079;-64
2024/04/06 11:58:32;;;;;;;9.30;7.50;;;;;;;17.51;84.67;96781.93;110144;1267;21957;-64
2024/04/06 12:01:00;;;;;;;8.30;7.40;;;;;;;17.60;81.93;96781.30;110002;1267;21971;-64
2024/04/06 12:03:28;;;;;;;9.80;7.20;;;;;;;17.72;80.05;96777.27;110127;1264;23601;-64
2024/04/06 12:05:56;;;;;;;10.30;8.10;;;;;;;17.86;79.14;96768.51;109972;1267;21967;-64
2024/04/06 12:08:26;;;;;;;8.70;7.80;;;;;;;17.98;83.52;96767.00;110054;1267;21977;-66
2024/04/06 12:10:55;;;;;;;9.00;7.60;;;;;;;18.08;81.76;96763.94;109948;1263;23781;-64
2024/04/06 12:13:25;;;;;;;9.40;8.10;;;;;;;18.15;84.83;96760.41;110152;1267;23703;-64
2024/04/06 12:15:53;;;;;;;9.90;8.30;;;;;;;18.20;84.92;96761.11;109977;1265;21980;-64
2024/04/06 12:18:21;;;;;;;9.30;8.00;;;;;;;18.19;86.43;96766.67;110131;1267;22044;-64
2024/04/06 12:20:49;;;;;;;11.80;9.40;;;;;;;18.16;87.71;96768.62;109983;1267;21969;-64
2024/04/06 12:23:18;;;;;;;8.70;7.70;;;;;;;18.13;88.40;96768.47;110203;1263;23029;-64
2024/04/06 12:25:46;;;;;;;11.20;8.60;;;;;;;18.14;85.94;96768.57;109971;1267;21959;-67
2024/04/06 12:28:14;;;;;;;9.50;8.00;;;;;;;18.15;86.13;96767.89;110145;1267;23017;-63
2024/04/06 12:30:42;;;;;;;10.80;9.20;;;;;;;18.18;87.38;96771.25;109975;1267;22426;-62
2024/04/06 12:33:10;;;;;;;10.30;9.30;;;;;;;18.19;86.41;96767.73;110147;1267;22466;-66
2024/04/06 12:35:42;;;;;;;13.10;9.00;;;;;;;18.19;86.01;96764.40;109951;1267;21956;-64
2024/04/06 12:38:10;;;;;;;8.20;7.40;;;;;;;18.21;84.30;96764.23;110215;1267;22068;-67
2024/04/06 12:40:38;;;;;;;10.50;8.90;;;;;;;18.21;84.60;96762.90;110043;1266;23070;-65
2024/04/06 12:43:06;;;;;;;9.70;8.70;;;;;;;18.22;86.29;96766.91;110245;1267;22008;-64
2024/04/06 12:45:35;;;;;;;11.50;9.00;;;;;;;18.21;87.59;96766.64;110054;1266;22041;-65
2024/04/06 12:48:03;;;;;;;11.10;9.10;;;;;;;18.19;87.33;96764.03;110013;1267;22112;-64
2024/04/06 12:50:31;;;;;;;9.50;8.00;;;;;;;18.19;87.18;96763.33;109888;1267;23826;-64
2024/04/06 12:52:59;;;;;;;10.40;8.70;;;;;;;18.19;86.90;96760.00;110283;1267;21981;-64
2024/04/06 12:55:27;;;;;;;10.30;8.30;;;;;;;18.20;85.28;96756.82;110104;1259;21965;-69
2024/04/06 12:57:56;;;;;;;10.40;8.90;;;;;;;18.23;82.13;96755.81;110234;1263;22311;-67
2024/04/06 13:00:24;;;;;;;10.00;8.50;;;;;;;18.25;82.04;96750.33;109965;1266;21964;-67
2024/04/06 13:02:52;;;;;;;10.00;7.60;;;;;;;18.30;82.46;96747.63;110196;1263;23092;-70
2024/04/06 13:05:20;;;;;;;9.40;8.10;;;;;;;18.33;82.14;96744.92;109989;1266;22619;-70
2024/04/06 13:07:48;;;;;;;11.90;8.80;;;;;;;18.40;84.65;96744.42;110156;1267;22094;-69
2024/04/06 13:10:20;;;;;;;9.90;8.30;;;;;;;18.47;86.15;96741.09;109976;1267;22000;-68
2024/04/06 13:12:48;;;;;;;9.00;8.10;;;;;;;18.54;85.60;96737.10;110134;1267;23147;-68
2024/04/06 13:15:16;;;;;;;12.10;8.60;;;;;;;18.61;82.30;96730.98;109963;1267;22014;-69
2024/04/06 13:17:44;;;;;;;11.10;9.10;;;;;;;18.69;84.46;96729.22;110131;1264;22002;-67
2024/04/06 13:22:44;;;;;;;10.80;8.60;;;;;;;18.76;83.64;96739.52;110134;1267;21998;-67
2024/04/06 13:25:13;;;;;;;10.40;8.70;;;;;;;18.75;84.11;96741.59;110047;1266;23735;-67
2024/04/06 13:27:43;;;;;;;11.20;8.90;;;;;;;18.66;85.37;96741.77;110195;1267;22329;-67
2024/04/06 13:30:12;;;;;;;;;;;;;;;18.55;84.76;96746.31;110057;1267;22144;-66
2024/04/06 13:32:41;;;;;;;11.20;8.70;;;;;;;18.47;84.86;96749.33;110190;1266;21980;-67
2024/04/06 13:35:09;;;;;;;11.80;8.70;;;;;;;18.38;84.67;96745.98;110070;1267;22174;-66
2024/04/06 13:37:37;;;;;;;10.10;8.30;;;;;;;18.26;86.34;96742.27;110168;1266;21966;-67
2024/04/06 13:40:10;;;;;;;9.90;8.60;;;;;;;18.17;87.29;96737.50;110013;1266;21995;-68
2024/04/06 13:42:39;;;;;;;10.30;8.70;;;;;;;18.08;88.14;96738.19;110153;1267;22078;-68
2024/04/06 13:45:14;;;;;;;11.60;8.70;;;;;;;18.04;87.08;96739.01;109985;1261;22016;-69
2024/04/06 13:47:46;;;;;;;10.90;9.10;;;;;;;17.98;89.57;96738.56;110178;1267;21964;-68
2024/04/06 13:50:15;;;;;;;11.00;9.00;;;;;;;17.93;87.54;96735.41;110065;1264;22074;-67
2024/04/06 13:52:43;;;;;;;9.90;8.20;;;;;;;17.91;84.32;96726.88;109948;1267;21964;-67
2024/04/06 13:55:11;;;;;;;8.60;7.20;;;;;;;17.89;86.96;96728.75;109858;1267;21971;-65
2024/04/06 13:57:45;;;;;;;11.40;8.20;;;;;;;17.78;87.19;96728.16;110173;1263;21976;-67
2024/04/06 14:00:14;;;;;;;11.70;8.60;;;;;;;17.54;95.39;96721.51;109976;1267;22851;-67
2024/04/06 14:02:42;;;;;;;9.50;7.80;;;;;;;17.34;96.80;96716.83;110217;1267;21969;-66
2024/04/06 14:05:10;;;;;;;10.20;8.10;;;;;;;17.27;95.75;96709.39;110027;1266;21966;-65
2024/04/06 14:07:38;;;;;;;11.30;8.80;;;;;;;17.25;97.31;96706.96;110172;1267;23788;-65
2024/04/06 14:10:07;;;;;;;10.60;9.50;;;;;;;17.17;99.33;96702.92;109943;1267;22369;-67
2024/04/06 14:12:36;;;;;;;10.60;8.90;;;;;;;17.14;100.00;96700.24;110117;1262;22027;-67
2024/04/06 14:15:07;;;;;;;12.50;10.30;;;;;;;17.15;99.27;96699.45;110021;1264;22744;-66
2024/04/06 14:17:36;;;;;;;11.80;10.30;;;;;;;17.15;99.61;96700.16;110160;1267;24315;-69
2024/04/06 14:20:08;;;;;;;13.30;9.80;;;;;;;17.17;100.00;96701.01;109949;1267;23022;-67
2024/04/06 14:22:38;;;;;;;12.60;10.30;;;;;;;17.17;100.00;96700.31;110045;1266;23639;-66
2024/04/06 14:25:06;;;;;;;11.60;9.50;;;;;;;17.15;100.00;96702.57;109971;1266;23673;-66
2024/04/06 14:27:34;;;;;;;10.20;8.90;;;;;;;17.14;100.00;96698.80;110104;1267;21967;-65
2024/04/06 14:30:49;;;;;;;10.40;8.90;;;;;;;17.12;100.00;96700.87;109942;1263;21983;-66
2024/04/06 14:32:51;;;;;;;11.70;8.90;;;;;;;17.12;100.00;96699.40;109919;1267;21993;-66
2024/04/06 14:35:19;;;;;;;12.60;9.20;;;;;;;17.12;100.00;96700.59;110003;1267;23039;-66
2024/04/06 14:37:48;;;;;;;10.30;8.50;;;;;;;17.12;100.00;96699.89;110182;1266;22073;-66
2024/04/06 14:40:16;;;;;;;9.90;8.20;;;;;;;17.11;100.00;96701.66;110001;1267;21988;-68
2024/04/06 14:42:45;;;;;;;10.90;9.70;;;;;;;17.03;100.00;96701.80;110152;1262;21970;-68
2024/04/06 14:45:13;;;;;;;10.60;8.80;;;;;;;17.00;100.00;96702.52;110185;1264;21988;-66
2024/04/06 14:47:40;;;;;;;11.50;9.30;;;;;;;17.00;100.00;96706.04;110369;1265;22096;-67
2024/04/06 14:50:11;;;;;;;9.30;8.20;;;;;;;17.03;100.00;96703.05;110187;1263;23035;-66
2024/04/06 14:52:40;;;;;;;15.00;12.30;;;;;;;17.10;100.00;96698.75;110372;1265;21962;-67
2024/04/06 14:55:07;;;;;;;14.20;12.70;;;;;;;17.17;100.00;96693.42;110216;1264;24308;-66
2024/04/06 14:57:35;;;;;;;12.60;9.60;;;;;;;17.20;100.00;96689.34;110420;1259;22145;-66
2024/04/06 15:00:04;;;;;;;13.50;11.10;;;;;;;17.24;100.00;96688.40;110446;1264;21974;-65
2024/04/06 15:02:32;;;;;;;10.50;7.80;;;;;;;17.27;100.00;96688.35;110540;1264;21928;-66
2024/04/06 15:05:05;;;;;;;9.90;8.90;;;;;;;17.32;100.00;96693.13;110392;1264;21959;-67
2024/04/06 15:07:34;;;;;;;8.80;7.70;;;;;;;17.32;100.00;96694.74;110503;1264;22012;-66
2024/04/06 15:10:05;;;;;;;11.00;8.90;;;;;;;17.28;100.00;96694.42;110423;1262;23572;-67
2024/04/06 15:12:33;;;;;;;9.60;7.80;;;;;;;17.27;100.00;96694.60;110524;1263;23634;-67
2024/04/06 15:15:02;;;;;;;9.70;7.60;;;;;;;17.23;100.00;96694.44;110283;1264;21972;-66
2024/04/06 15:17:31;;;;;;;8.80;7.80;;;;;;;17.20;100.00;96689.52;110448;1264;23694;-66
2024/04/06 15:19:59;;;;;;;10.50;8.50;;;;;;;17.19;100.00;96686.42;110309;1264;21969;-66
2024/04/06 15:22:27;;;;;;;9.90;8.00;;;;;;;17.17;100.00;96689.52;110453;1264;21969;-67
2024/04/06 15:24:55;;;;;;;10.50;8.90;;;;;;;17.09;100.00;96690.07;110238;1263;22029;-67
2024/04/06 15:27:23;;;;;;;12.10;9.30;;;;;;;17.01;100.00;96696.07;110435;1261;21960;-66
2024/04/06 15:29:51;;;;;;;10.60;8.70;;;;;;;16.92;100.00;96694.70;110251;1260;23589;-66
2024/04/06 15:32:19;;;;;;;11.20;9.00;;;;;;;16.84;100.00;96695.17;110572;1264;22020;-68
2024/04/06 15:34:47;;;;;;;13.40;9.30;;;;;;;16.79;100.00;96698.05;110228;1263;22101;-66
2024/04/06 15:37:15;;;;;;;11.50;9.10;;;;;;;16.76;100.00;96694.92;110606;1263;21963;-66
2024/04/06 15:39:43;;;;;;;10.30;8.40;;;;;;;16.74;100.00;96698.46;110253;1260;21985;-66
2024/04/06 15:42:12;;;;;;;12.10;8.60;;;;;;;16.73;100.00;96703.11;110587;1257;22092;-66
2024/04/06 15:44:41;;;;;;;11.80;8.70;;;;;;;16.70;100.00;96713.31;110254;1263;21972;-67
2024/04/06 15:47:09;;;;;;;11.10;8.30;;;;;;;16.65;100.00;96712.59;110448;1263;21979;-66
2024/04/06 15:49:37;;;;;;;9.80;7.70;;;;;;;16.57;100.00;96718.75;110291;1260;23724;-68
2024/04/06 15:52:05;;;;;;;10.40;8.10;;;;;;;16.50;100.00;96723.19;110447;1264;21983;-68
2024/04/06 15:54:33;;;;;;;10.40;8.30;;;;;;;16.44;100.00;96726.64;112424;1263;21924;-66
2024/04/06 15:57:04;;;;;;;9.40;8.00;;;;;;;16.41;100.00;96729.52;112367;1264;22225;-67
2024/04/06 15:59:31;;;;;;;9.70;7.20;;;;;;;16.39;100.00;96727.03;112414;1263;21792;-66
2024/04/06 16:02:00;;;;;;;9.60;7.40;;;;;;;16.38;100.00;96737.66;112355;1264;21843;-66
2024/04/06 16:04:28;;;;;;;9.40;7.80;;;;;;;16.36;100.00;96730.40;112431;1263;21805;-64
2024/04/06 16:06:56;;;;;;;9.00;7.40;;;;;;;16.34;100.00;96735.83;112374;1263;21934;-65
2024/04/06 16:09:24;;;;;;;10.30;7.30;;;;;;;16.33;100.00;96736.14;112226;1260;21903;-66
2024/04/06 16:11:52;;;;;;;9.70;7.30;;;;;;;16.36;100.00;96735.11;112400;1263;21928;-66
2024/04/06 16:14:22;;;;;;;11.00;7.70;;;;;;;16.39;100.00;96736.77;112387;1264;21818;-66
2024/04/06 16:16:51;;;;;;;10.50;8.00;;;;;;;16.43;100.00;96746.89;112379;1264;21903;-66
2024/04/06 16:19:20;;;;;;;9.60;8.40;;;;;;;16.47;100.00;96748.11;112414;1263;21844;-66
2024/04/06 16:21:48;;;;;;;8.90;7.30;;;;;;;16.50;100.00;96745.20;112389;1263;22264;-65
2024/04/06 16:24:19;;;;;;;11.00;7.40;;;;;;;16.48;100.00;96746.95;112409;1257;21766;-66
2024/04/06 16:26:47;;;;;;;9.00;7.10;;;;;;;16.39;100.00;96751.31;112371;1263;21808;-66
2024/04/06 16:29:15;;;;;;;11.20;8.10;;;;;;;16.28;100.00;96751.92;112143;1264;21852;-66
2024/04/06 16:31:43;;;;;;;12.00;8.40;;;;;;;16.23;100.00;96753.85;112407;1263;21899;-66
2024/04/06 16:34:11;;;;;;;10.10;7.50;;;;;;;16.17;100.00;96756.64;112410;1260;21841;-65
2024/04/06 16:36:39;;;;;;;10.00;7.80;;;;;;;16.07;100.00;96759.27;112375;1264;22566;-64
2024/04/06 16:39:08;;;;;;;9.00;7.50;;;;;;;15.98;100.00;96757.73;112381;1263;21898;-65
2024/04/06 16:41:36;;;;;;;10.50;7.10;;;;;;;15.94;100.00;96759.95;112399;1263;21828;-66
2024/04/06 16:44:04;;;;;;;10.70;8.20;;;;;;;15.90;100.00;96759.45;112407;1263;21846;-66
2024/04/06 16:46:32;;;;;;;11.20;8.60;;;;;;;15.87;100.00;96759.21;112405;1264;22308;-65
2024/04/06 16:49:00;;;;;;;10.90;8.60;;;;;;;15.86;100.00;96757.50;112392;1264;21803;-66
2024/04/06 16:51:30;;;;;;;11.50;9.00;;;;;;;15.82;100.00;96757.72;112388;1263;21797;-66
2024/04/06 16:53:58;;;;;;;11.00;9.40;;;;;;;15.79;100.00;96752.54;112405;1264;21902;-66
2024/04/06 16:56:26;;;;;;;4.70;3.40;;;;;;;15.80;100.00;96750.30;112385;1264;22526;-66
2024/04/06 16:58:54;;;;;;;10.40;8.30;;;;;;;15.77;100.00;96752.52;112307;1264;21876;-66
2024/04/06 17:01:22;;;;;;;9.60;8.30;;;;;;;15.73;100.00;96756.14;112410;1264;22164;-65
2024/04/06 17:03:50;;;;;;;10.00;8.30;;;;;;;15.70;100.00;96759.65;112349;1264;21902;-65
2024/04/06 17:06:18;;;;;;;8.60;6.60;;;;;;;15.66;100.00;96760.75;112388;1263;21957;-66
2024/04/06 17:08:46;;;;;;;11.10;8.30;;;;;;;15.52;100.00;96763.73;112125;1264;21807;-66
2024/04/06 17:11:15;;;;;;;9.10;8.20;;;;;;;15.37;100.00;96764.05;112460;1263;22291;-66
2024/04/06 17:13:43;;;;;;;9.00;7.50;;;;;;;15.28;100.00;96760.61;112370;1263;21812;-67
2024/04/06 17:16:11;;;;;;;11.10;7.50;;;;;;;15.16;100.00;96753.73;112321;1264;21912;-66
2024/04/06 17:18:39;;;;;;;10.20;7.60;;;;;;;15.05;100.00;96761.23;112365;1263;21868;-65
2024/04/06 17:21:08;;;;;;;10.90;8.80;;;;;;;14.95;100.00;96761.98;112415;1263;21815;-65
2024/04/06 17:23:36;;;;;;;10.90;8.90;;;;;;;14.79;100.00;96759.41;112371;1263;22286;-66
2024/04/06 17:26:04;;;;;;;12.70;10.50;;;;;;;14.68;100.00;96762.42;112385;1261;21921;-65
2024/04/06 17:28:31;;;;;;;11.70;8.60;;;;;;;14.60;100.00;96762.03;112353;1263;22390;-66
2024/04/06 17:30:59;;;;;;;16.00;11.00;;;;;;;14.51;100.00;96771.83;112376;1260;21737;-66
2024/04/06 17:33:27;;;;;;;12.70;9.40;;;;;;;14.51;100.00;96784.06;112330;1264;22220;-66
2024/04/06 17:35:55;;;;;;;11.90;8.80;;;;;;;14.56;100.00;96789.45;112416;1261;21806;-66
2024/04/06 17:38:23;;;;;;;14.00;11.40;;;;;;;14.62;100.00;96793.36;112359;1263;21869;-66
2024/04/06 17:40:51;;;;;;;11.40;9.80;;;;;;;14.67;100.00;96796.86;112397;1263;21800;-65
2024/04/06 17:43:21;;;;;;;10.80;6.60;;;;;;;14.67;100.00;96804.95;112355;1264;21817;-66
2024/04/06 17:45:49;;;;;;;10.50;8.60;;;;;;;14.61;100.00;96798.08;112419;1263;21792;-66
2024/04/06 17:48:17;;;;;;;10.90;8.80;;;;;;;14.55;100.00;96798.33;112350;1263;21980;-66
2024/04/06 17:50:45;;;;;;;9.60;6.80;;;;;;;14.48;100.00;96801.02;112377;1261;22059;-65
2024/04/06 17:53:13;;;;;;;8.70;7.10;;;;;;;14.38;100.00;96800.30;112358;1257;21909;-65
2024/04/06 17:55:41;;;;;;;10.30;8.20;;;;;;;14.29;100.00;96803.44;112390;1261;21749;-66
2024/04/06 17:58:12;;;;;;;11.00;9.10;;;;;;;14.30;100.00;96807.05;112347;1260;22244;-65
2024/04/06 18:00:45;;;;;;;12.20;8.90;;;;;;;14.28;100.00;96810.66;112382;1263;22026;-65
2024/04/06 18:03:14;;;;;;;11.10;8.60;;;;;;;14.27;100.00;96813.05;112342;1264;21868;-66
2024/04/06 18:05:42;;;;;;;8.90;6.00;;;;;;;14.19;100.00;96813.98;112414;1262;21800;-65
2024/04/06 18:08:10;;;;;;;12.20;8.50;;;;;;;14.10;100.00;96814.75;112351;1264;22291;-66
2024/04/06 18:10:39;;;;;;;8.80;6.90;;;;;;;14.05;100.00;96811.67;112419;1264;21876;-66
2024/04/06 18:13:07;;;;;;;10.10;8.40;;;;;;;13.99;100.00;96814.76;112367;1264;21905;-65
2024/04/06 18:15:35;;;;;;;11.90;8.90;;;;;;;13.97;100.00;96818.61;112374;1264;21911;-67
2024/04/06 18:18:04;;;;;;;10.60;7.80;;;;;;;13.95;100.00;96820.58;112364;1264;21854;-65
2024/04/06 18:20:32;;;;;;;11.70;8.20;;;;;;;13.91;100.00;96827.38;112405;1261;21730;-65
2024/04/06 18:23:00;;;;;;;9.90;7.60;;;;;;;13.89;100.00;96830.07;112217;1263;21875;-65
2024/04/06 18:25:28;;;;;;;10.90;6.70;;;;;;;13.88;100.00;96833.00;112409;1264;21897;-66
2024/04/06 18:27:57;;;;;;;13.10;9.10;;;;;;;13.88;100.00;96837.19;112360;1263;21904;-66
2024/04/06 18:30:25;;;;;;;10.80;8.30;;;;;;;13.90;100.00;96839.05;112420;1264;21890;-66
2024/04/06 18:32:53;;;;;;;8.30;7.10;;;;;;;13.85;100.00;96836.42;112403;1264;21921;-66
2024/04/06 18:35:21;;;;;;;9.70;7.70;;;;;;;13.76;100.00;96840.52;112398;1264;21844;-66
2024/04/06 18:37:49;;;;;;;10.60;8.70;;;;;;;13.79;100.00;96840.66;112343;1264;21940;-66
2024/04/06 18:40:17;;;;;;;6.30;4.90;;;;;;;13.79;100.00;96837.84;112437;1263;21851;-66
2024/04/06 18:42:45;;;;;;;8.80;7.00;;;;;;;13.74;100.00;96836.86;112393;1264;21918;-66
2024/04/06 18:45:13;;;;;;;8.80;7.40;;;;;;;13.79;100.00;96838.03;112399;1264;21858;-66
2024/04/06 18:47:42;;;;;;;11.10;8.70;;;;;;;13.81;100.00;96836.97;112354;1261;22657;-69
2024/04/06 18:50:10;;;;;;;10.70;8.70;;;;;;;13.84;100.00;96833.86;112378;1264;22169;-67
2024/04/06 18:52:38;;;;;;;9.90;8.60;;;;;;;13.88;100.00;96832.46;112338;1260;21840;-67
2024/04/06 18:55:06;;;;;;;10.10;8.10;;;;;;;13.90;100.00;96830.70;112397;1263;21811;-67
2024/04/06 18:57:34;;;;;;;10.90;8.20;;;;;;;13.91;100.00;96829.31;112367;1262;21903;-68
2024/04/06 19:00:02;;;;;;;10.50;8.10;;;;;;;13.95;100.00;96828.96;112410;1264;21866;-66
2024/04/06 19:02:30;;;;;;;10.30;7.80;;;;;;;13.99;100.00;96826.48;112358;1264;21778;-67
2024/04/06 19:04:59;;;;;;;9.40;7.50;;;;;;;14.02;100.00;96828.13;112362;1264;21823;-67
2024/04/06 19:07:27;;;;;;;10.40;8.00;;;;;;;14.07;100.00;96822.42;112368;1260;21798;-67
2024/04/06 19:09:55;;;;;;;11.30;8.30;;;;;;;14.11;100.00;96820.25;112269;1264;21785;-67
2024/04/06 19:12:24;;;;;;;9.80;7.20;;;;;;;14.15;100.00;96824.41;112373;1264;22246;-68
2024/04/06 19:14:52;;;;;;;9.90;7.50;;;;;;;14.20;100.00;96828.98;112445;1263;21930;-68
2024/04/06 19:17:19;;;;;;;8.90;6.50;;;;;;;14.24;100.00;96834.58;112377;1263;21925;-66
2024/04/06 19:19:47;;;;;;;8.80;7.70;;;;;;;14.27;100.00;96833.36;112381;1259;21837;-67
2024/04/06 19:22:15;;;;;;;10.40;7.10;;;;;;;14.31;100.00;96835.73;112375;1263;21891;-68
2024/04/06 19:24:44;;;;;;;10.70;7.90;;;;;;;14.33;100.00;96837.73;112407;1264;21829;-67
2024/04/06 19:27:12;;;;;;;12.70;9.50;;;;;;;14.35;100.00;96836.83;112373;1264;21857;-67
2024/04/06 19:29:40;;;;;;;11.40;8.20;;;;;;;14.39;100.00;96840.13;112398;1261;21759;-68
2024/04/06 19:32:08;;;;;;;14.80;10.90;;;;;;;14.45;100.00;96840.80;112362;1263;21899;-67
2024/04/06 19:34:37;;;;;;;11.10;8.90;;;;;;;14.50;100.00;96842.06;112400;1263;21868;-66
2024/04/06 19:37:05;;;;;;;9.00;7.30;;;;;;;14.53;100.00;96846.34;112386;1264;21952;-67
2024/04/06 19:39:33;;;;;;;8.70;7.00;;;;;;;14.55;100.00;96841.05;112399;1264;21928;-68
2024/04/06 19:42:02;;;;;;;8.40;6.70;;;;;;;14.52;100.00;96840.27;112372;1264;21839;-67
2024/04/06 19:44:30;;;;;;;7.60;5.70;;;;;;;14.53;100.00;96837.60;112400;1264;21862;-66
2024/04/06 19:46:59;;;;;;;6.90;5.30;;;;;;;14.51;100.00;96832.17;112394;1263;22242;-67
2024/04/06 19:49:27;;;;;;;8.00;5.40;;;;;;;14.47;100.00;96830.58;112408;1263;22320;-67
2024/04/06 19:51:55;;;;;;;7.10;4.90;;;;;;;14.44;100.00;96829.65;112379;1263;21901;-66
2024/04/06 19:54:23;;;;;;;5.20;3.70;;;;;;;14.46;100.00;96831.61;112395;1264;21993;-67
2024/04/06 19:56:51;;;;;;;7.30;5.40;;;;;;;14.47;100.00;96832.20;112377;1264;21800;-67
2024/04/06 19:59:19;;;;;;;6.50;4.80;;;;;;;14.50;100.00;96834.84;112421;1264;21787;-67
2024/04/06 20:01:47;;;;;;;6.80;4.30;;;;;;;14.51;100.00;96837.22;112371;1264;21910;-67
2024/04/06 20:04:15;;;;;;;5.40;4.50;;;;;;;14.49;100.00;96839.49;112400;1263;21776;-67
2024/04/06 20:06:44;;;;;;;7.40;4.60;;;;;;;14.46;100.00;96841.05;112381;1264;21898;-67
2024/04/06 20:09:15;;;;;;;5.70;4.30;;;;;;;14.44;100.00;96842.14;112412;1264;21912;-67
2024/04/06 20:11:44;;;;;;;6.30;4.30;;;;;;;14.42;100.00;96841.03;112131;1264;22382;-67
2024/04/06 20:14:12;;;;;;;5.20;4.00;;;;;;;14.43;100.00;96839.40;112406;1264;21846;-67
2024/04/06 20:16:40;;;;;;;4.60;4.20;;;;;;;14.45;100.00;96845.50;112408;1264;22344;-67
2024/04/06 20:19:08;;;;;;;7.50;4.80;;;;;;;14.47;100.00;96847.95;112401;1263;21838;-67
2024/04/06 20:21:36;;;;;;;6.90;4.60;;;;;;;14.51;100.00;96852.33;112387;1264;22143;-67
2024/04/06 20:26:50;;;;;;;6.30;4.80;;;;;;;14.53;100.00;96860.52;112378;1264;21884;-65
2024/04/06 20:29:18;;;;;;;6.10;4.70;;;;;;;14.53;100.00;96863.77;112269;1264;21867;-66
2024/04/06 20:31:46;;;;;;;6.90;4.70;;;;;;;14.51;100.00;96865.64;112368;1264;21904;-65
2024/04/06 20:34:14;;;;;;;6.90;4.60;;;;;;;14.49;100.00;96866.71;112407;1263;21977;-65
2024/04/06 20:36:42;;;;;;;5.70;4.60;;;;;;;14.47;100.00;96869.33;112380;1263;22541;-65
2024/04/06 20:39:13;;;;;;;6.20;4.80;;;;;;;14.48;100.00;96866.83;112411;1257;21914;-66
2024/04/06 20:41:41;;;;;;;8.20;6.90;;;;;;;14.43;100.00;96870.60;112397;1263;21967;-65
2024/04/06 20:44:12;;;;;;;11.60;8.50;;;;;;;14.41;100.00;96869.36;112408;1263;22182;-67
2024/04/06 20:46:40;;;;;;;10.70;8.60;;;;;;;14.39;100.00;96868.11;112384;1262;21942;-66
2024/04/06 20:49:08;;;;;;;9.20;7.50;;;;;;;14.31;100.00;96867.15;112394;1264;21833;-65
2024/04/06 20:51:36;;;;;;;11.20;8.60;;;;;;;14.19;100.00;96865.15;112384;1264;21892;-65
2024/04/06 20:54:05;;;;;;;10.10;8.50;;;;;;;14.08;100.00;96863.95;112402;1264;21852;-67
2024/04/06 20:56:32;;;;;;;11.00;8.30;;;;;;;13.99;100.00;96864.70;112382;1264;21842;-65
2024/04/06 20:59:00;;;;;;;13.30;10.80;;;;;;;13.88;100.00;96866.41;112413;1264;21875;-65
2024/04/06 21:01:29;;;;;;;15.10;10.10;;;;;;;13.77;100.00;96866.45;112405;1264;21823;-66
2024/04/06 21:03:57;;;;;;;8.80;7.80;;;;;;;13.67;100.00;96869.05;112406;1263;21809;-66
2024/04/06 21:06:25;;;;;;;14.60;11.10;;;;;;;13.62;100.00;96874.13;112410;1264;21939;-66
2024/04/06 21:08:53;;;;;;;9.10;7.40;;;;;;;13.56;100.00;96875.06;112288;1262;21892;-65
2024/04/06 21:11:21;;;;;;;12.20;9.50;;;;;;;13.48;100.00;96876.68;112405;1264;21900;-65
2024/04/06 21:13:49;;;;;;;10.20;8.00;;;;;;;13.36;100.00;96879.86;112374;1262;22504;-66
2024/04/06 21:16:17;;;;;;;12.60;9.50;;;;;;;13.27;100.00;96877.23;112404;1264;22599;-65
2024/04/06 21:18:45;;;;;;;12.50;9.20;;;;;;;13.20;100.00;96876.39;112385;1263;21805;-66
2024/04/06 21:21:13;;;;;;;12.80;10.50;;;;;;;13.17;100.00;96873.35;112403;1264;21894;-66